Archival Weather

Chicago O'Hare International

Chicago, Illinois (KORD)

Report from: Tuesday, December 27, 2022 1:51 PM CST
Current time: Friday, June 14, 2024 8:20 AM CDT

Current weather – Weather history – Daily summaries
Weather forecast

Temperature-5.0°C (23.0°F)
Wind chill-12.7°C (9.2°F)
Dew point-11.7°C (10.9°F)
Winds 15 kts (7.7 m/s, 17.3 mph) South-Southwest (200°)
Wind gusts 22 kts (11.3 m/s, 25.3 mph)
Visibility10 mi. (16.1 km)
Clouds Scattered clouds 14,000 ft. (4,267 m)
Ceiling: Broken clouds 25,000 ft. (7,620 m)
Altimeter30.03 in.Hg (1017 mB)
Relative humidity59 %
Density altitude-2,598 ft. (-792 m)
Sea-level pressure101.8 kPa (1018 mB, 30.07 in.Hg)
Remarks Automated weather observing station with precipitation discriminator
Flight conditions Visual Meteorological Conditions
Raw dataKORD 271951Z 20015G22KT 10SM SCT140 BKN250 M05/M12 A3003 RMK AO2 SLP182 T10501117
An error has occurred. This application may no longer respond until reloaded. Reload 🗙